Time;durP1;ratioP1;P1;durP2;ratioP2;P2;SDS_P1;SDS_P2;PMS_P1;PMS_P2;Temp;Humidity;BMP_temperature;BMP_pressure;BME280_temperature;BME280_humidity;BME280_pressure;Samples;Min_cycle;Max_cycle;Signal;HPM_P1;HPM_P2
2022/08/07 00:00:38;;;;;;;9.05;4.47;;;16.00;99.90;;;;;;5138762;27;20035;-67
2022/08/07 00:03:03;;;;;;;8.63;4.32;;;15.90;99.90;;;;;;5139067;27;20039;-68
2022/08/07 00:05:29;;;;;;;8.02;4.13;;;16.00;99.90;;;;;;5137618;27;20058;-68
2022/08/07 00:07:55;;;;;;;6.43;4.07;;;16.00;99.90;;;;;;5137378;27;20035;-68
2022/08/07 00:10:22;;;;;;;6.15;3.67;;;15.90;99.90;;;;;;5138649;27;20043;-68
2022/08/07 00:12:49;;;;;;;4.93;3.65;;;15.90;99.90;;;;;;5138698;27;20035;-68
2022/08/07 00:15:15;;;;;;;6.38;4.20;;;15.70;99.90;;;;;;5138661;27;20034;-68
2022/08/07 00:17:41;;;;;;;6.28;4.38;;;15.70;99.90;;;;;;5137436;27;20135;-68
2022/08/07 00:20:07;;;;;;;6.63;4.15;;;15.60;99.90;;;;;;5138696;27;20078;-68
2022/08/07 00:22:33;;;;;;;6.72;4.38;;;15.70;99.90;;;;;;5138634;27;20042;-68
2022/08/07 00:24:58;;;;;;;6.50;4.03;;;15.70;99.90;;;;;;5137992;27;20047;-68
2022/08/07 00:27:24;;;;;;;5.95;4.45;;;15.70;99.90;;;;;;5137983;27;20407;-68
2022/08/07 00:29:50;;;;;;;6.55;4.35;;;15.60;99.90;;;;;;5137740;27;20125;-68
2022/08/07 00:32:16;;;;;;;6.03;4.43;;;15.50;99.90;;;;;;5137678;27;20035;-68
2022/08/07 00:34:42;;;;;;;5.38;4.00;;;15.50;99.90;;;;;;5137088;27;20049;-68
2022/08/07 00:37:07;;;;;;;7.20;4.50;;;15.50;99.90;;;;;;5137800;27;20043;-68
2022/08/07 00:39:36;;;;;;;8.27;4.50;;;15.60;99.90;;;;;;5138100;27;20050;-68
2022/08/07 00:42:02;;;;;;;6.78;4.35;;;15.80;99.90;;;;;;5138127;27;20351;-68
2022/08/07 00:44:28;;;;;;;7.65;4.22;;;15.80;99.90;;;;;;5136764;27;20046;-68
2022/08/07 00:46:54;;;;;;;7.72;4.97;;;15.80;99.90;;;;;;5137377;27;20039;-68
2022/08/07 00:49:19;;;;;;;7.43;4.00;;;15.70;99.90;;;;;;5137745;27;20047;-68
2022/08/07 00:51:45;;;;;;;6.43;4.15;;;15.60;99.90;;;;;;5136956;27;20046;-68
2022/08/07 00:54:13;;;;;;;7.82;4.50;;;15.40;99.90;;;;;;5138040;27;20042;-68
2022/08/07 00:56:39;;;;;;;7.72;4.38;;;15.40;99.90;;;;;;5137824;27;20042;-67
2022/08/07 00:59:05;;;;;;;7.47;3.97;;;15.40;99.90;;;;;;5136852;27;20433;-68
2022/08/07 01:01:31;;;;;;;7.20;3.90;;;15.30;99.90;;;;;;5136379;27;20126;-68
2022/08/07 01:03:57;;;;;;;6.75;4.15;;;15.30;99.90;;;;;;5137377;27;20043;-68
2022/08/07 01:06:23;;;;;;;4.72;3.42;;;15.30;99.90;;;;;;5137784;27;20092;-68
2022/08/07 01:08:49;;;;;;;6.40;3.40;;;15.20;99.90;;;;;;5137232;27;20039;-68
2022/08/07 01:11:16;;;;;;;4.90;3.53;;;15.20;99.90;;;;;;5137874;27;20473;-68
2022/08/07 01:13:42;;;;;;;4.93;3.40;;;15.10;99.90;;;;;;5136568;27;20051;-68
2022/08/07 01:16:08;;;;;;;4.90;3.08;;;15.00;99.90;;;;;;5136598;27;20035;-68
2022/08/07 01:18:35;;;;;;;3.75;2.70;;;15.00;99.90;;;;;;5137536;27;20050;-68
2022/08/07 01:21:09;;;;;;;6.03;3.90;;;14.90;99.90;;;;;;5137816;27;20051;-68
2022/08/07 01:23:36;;;;;;;7.18;4.60;;;15.00;99.90;;;;;;5136300;27;20043;-68
2022/08/07 01:26:03;;;;;;;5.95;3.80;;;15.00;99.90;;;;;;5136588;27;20388;-68
2022/08/07 01:28:30;;;;;;;5.88;3.63;;;15.10;99.90;;;;;;5137053;27;20042;-68
2022/08/07 01:30:56;;;;;;;7.40;4.07;;;15.20;99.90;;;;;;5136852;27;20042;-70
2022/08/07 01:33:23;;;;;;;7.30;4.13;;;15.00;99.90;;;;;;5137163;28;20035;-70
2022/08/07 01:35:49;;;;;;;4.80;3.75;;;14.90;99.90;;;;;;5137443;27;20039;-70
2022/08/07 01:38:16;;;;;;;5.35;3.78;;;14.90;99.90;;;;;;5137042;27;20162;-70
2022/08/07 01:40:44;;;;;;;6.53;4.68;;;14.80;99.90;;;;;;5137457;27;20035;-70
2022/08/07 01:43:10;;;;;;;5.70;3.65;;;14.80;99.90;;;;;;5137298;27;20047;-70
2022/08/07 01:45:36;;;;;;;6.00;4.05;;;14.80;99.90;;;;;;5135794;27;20044;-70
2022/08/07 01:48:03;;;;;;;7.22;4.10;;;14.70;99.90;;;;;;5135773;27;20114;-69
2022/08/07 01:50:30;;;;;;;7.35;4.07;;;14.70;99.90;;;;;;5137281;27;20039;-70
2022/08/07 01:52:57;;;;;;;6.88;4.30;;;14.70;99.90;;;;;;5136921;27;20031;-70
2022/08/07 01:55:32;;;;;;;6.50;4.07;;;14.70;99.90;;;;;;5136311;28;20488;-70
2022/08/07 01:57:59;;;;;;;7.03;4.78;;;14.80;99.90;;;;;;5136983;27;20065;-70
2022/08/07 02:00:29;;;;;;;6.53;4.13;;;14.80;99.90;;;;;;5137283;27;20031;-70
2022/08/07 02:03:08;;;;;;;7.30;4.72;;;14.80;99.90;;;;;;5137208;27;20035;-70
2022/08/07 02:06:06;;;;;;;6.28;4.25;;;14.80;99.90;;;;;;5137134;27;20039;-70
2022/08/07 02:08:36;;;;;;;7.05;4.60;;;14.70;99.90;;;;;;5124663;27;20115;-70
2022/08/07 02:11:04;;;;;;;8.27;4.10;;;14.70;99.90;;;;;;5137115;27;20035;-70
2022/08/07 02:13:32;;;;;;;7.07;4.63;;;14.80;99.90;;;;;;5139915;27;20358;-70
2022/08/07 02:16:01;;;;;;;6.65;4.72;;;14.80;99.90;;;;;;5141245;27;20043;-70
2022/08/07 02:18:29;;;;;;;6.72;4.65;;;14.80;99.90;;;;;;5140943;27;20077;-70
2022/08/07 02:20:57;;;;;;;8.55;5.18;;;14.80;99.90;;;;;;5140102;27;20121;-70
2022/08/07 02:23:24;;;;;;;7.57;4.82;;;14.70;99.90;;;;;;5122715;27;20039;-70
2022/08/07 02:25:55;;;;;;;8.70;4.55;;;14.70;99.90;;;;;;5139561;27;20051;-70
2022/08/07 02:28:21;;;;;;;6.93;4.75;;;14.70;99.90;;;;;;5140390;27;20077;-70
2022/08/07 02:30:49;;;;;;;8.15;4.90;;;14.70;99.90;;;;;;5140718;27;20043;-70
2022/08/07 02:33:16;;;;;;;8.30;5.07;;;14.70;99.90;;;;;;5140466;27;20028;-70
2022/08/07 02:35:43;;;;;;;10.70;5.03;;;14.70;99.90;;;;;;5140688;27;20081;-70
2022/08/07 02:38:11;;;;;;;8.07;4.90;;;14.70;99.90;;;;;;5139243;27;20312;-70
2022/08/07 02:40:37;;;;;;;8.10;4.93;;;14.70;99.90;;;;;;5140493;27;20189;-70
2022/08/07 02:43:05;;;;;;;8.52;5.13;;;14.80;99.90;;;;;;5140700;27;20066;-70
2022/08/07 02:45:32;;;;;;;7.00;4.50;;;14.80;99.90;;;;;;5139205;27;20053;-70
2022/08/07 02:47:58;;;;;;;7.95;4.72;;;14.80;99.90;;;;;;5138931;27;20047;-70
2022/08/07 02:50:24;;;;;;;8.25;4.82;;;14.80;99.90;;;;;;5138967;27;20127;-70
2022/08/07 02:52:58;;;;;;;5.85;4.20;;;14.80;99.90;;;;;;5139948;27;20035;-70
2022/08/07 02:55:31;;;;;;;7.57;5.07;;;14.80;99.90;;;;;;5140278;27;20121;-70
2022/08/07 02:58:02;;;;;;;7.40;4.75;;;14.70;99.90;;;;;;5139131;27;20046;-69
2022/08/07 03:00:32;;;;;;;6.90;4.57;;;14.60;99.90;;;;;;5139879;27;20510;-70
2022/08/07 03:02:58;;;;;;;7.63;4.90;;;14.60;99.90;;;;;;5140284;27;20047;-70
2022/08/07 03:05:25;;;;;;;6.65;4.22;;;14.60;99.90;;;;;;5138797;27;20043;-70
2022/08/07 03:07:51;;;;;;;6.75;4.72;;;14.60;99.90;;;;;;5138737;27;20381;-70
2022/08/07 03:10:17;;;;;;;8.70;4.95;;;14.50;99.90;;;;;;5140177;27;20112;-70
2022/08/07 03:12:45;;;;;;;6.20;4.15;;;14.40;99.90;;;;;;5139916;27;20333;-70
2022/08/07 03:15:12;;;;;;;6.07;4.40;;;14.40;99.90;;;;;;5139943;27;20042;-70
2022/08/07 03:17:40;;;;;;;7.40;4.28;;;14.40;99.90;;;;;;5139803;27;20134;-70
2022/08/07 03:20:06;;;;;;;7.55;4.40;;;14.40;99.90;;;;;;5139492;27;20043;-70
2022/08/07 03:22:33;;;;;;;6.35;4.10;;;14.50;99.90;;;;;;5121621;27;20414;-70
2022/08/07 03:24:59;;;;;;;8.52;4.53;;;14.40;99.90;;;;;;5139279;27;20047;-70
2022/08/07 03:27:26;;;;;;;7.75;4.00;;;14.40;99.90;;;;;;5139750;27;20050;-70
2022/08/07 03:29:52;;;;;;;8.00;4.32;;;14.30;99.90;;;;;;5139402;27;20054;-70
2022/08/07 03:32:34;;;;;;;6.43;4.50;;;14.30;99.90;;;;;;5139699;27;20031;-70
2022/08/07 03:35:04;;;;;;;7.65;4.65;;;14.30;99.90;;;;;;5139458;27;20039;-70
2022/08/07 03:37:33;;;;;;;8.05;4.15;;;14.30;99.90;;;;;;5139087;27;20035;-70
2022/08/07 03:39:59;;;;;;;7.63;4.95;;;14.30;99.90;;;;;;5138188;27;20039;-69
2022/08/07 03:42:25;;;;;;;7.53;4.45;;;14.30;99.90;;;;;;5139225;27;20038;-69
2022/08/07 03:44:51;;;;;;;7.25;4.55;;;14.30;99.90;;;;;;5155640;27;20435;-70
2022/08/07 03:47:17;;;;;;;7.18;4.50;;;14.30;99.90;;;;;;5139327;27;20035;-69
2022/08/07 03:49:44;;;;;;;6.88;4.47;;;14.30;99.90;;;;;;5139398;27;20035;-69
2022/08/07 03:52:11;;;;;;;8.07;4.63;;;14.20;99.90;;;;;;5138980;27;20350;-69
2022/08/07 03:54:37;;;;;;;7.43;4.72;;;14.20;99.90;;;;;;5139315;27;20035;-69
2022/08/07 03:57:05;;;;;;;7.00;4.53;;;14.10;99.90;;;;;;5138871;27;20174;-69
2022/08/07 03:59:31;;;;;;;6.93;4.68;;;14.00;99.90;;;;;;5139184;27;20039;-70
2022/08/07 04:01:57;;;;;;;7.20;4.75;;;14.10;99.90;;;;;;5138954;27;20071;-71
2022/08/07 04:04:23;;;;;;;7.55;4.70;;;14.10;99.90;;;;;;5138438;27;20362;-70
2022/08/07 04:06:50;;;;;;;8.10;4.72;;;14.00;99.90;;;;;;5138220;27;20034;-70
2022/08/07 04:09:16;;;;;;;9.80;4.35;;;14.20;99.90;;;;;;5137431;27;20082;-70
2022/08/07 04:11:48;;;;;;;6.30;4.20;;;14.10;99.90;;;;;;5136871;27;20108;-70
2022/08/07 04:14:14;;;;;;;9.00;4.65;;;14.20;99.90;;;;;;5138594;27;20046;-69
2022/08/07 04:16:40;;;;;;;7.95;5.00;;;14.20;99.90;;;;;;5137689;27;20381;-70
2022/08/07 04:19:07;;;;;;;8.75;5.38;;;14.20;99.90;;;;;;5138249;27;20118;-70
2022/08/07 04:21:33;;;;;;;8.82;5.32;;;14.30;99.90;;;;;;5138709;27;20035;-70
2022/08/07 04:24:00;;;;;;;8.52;5.45;;;14.30;99.90;;;;;;5138114;27;20039;-70
2022/08/07 04:26:26;;;;;;;7.97;4.95;;;14.30;99.90;;;;;;5138030;27;20059;-69
2022/08/07 04:28:51;;;;;;;9.38;5.05;;;14.20;99.90;;;;;;5138298;27;20297;-70
2022/08/07 04:31:18;;;;;;;7.85;5.38;;;14.20;99.90;;;;;;5137966;27;20358;-70
2022/08/07 04:33:45;;;;;;;8.43;5.45;;;14.30;99.90;;;;;;5138350;27;20046;-69
2022/08/07 04:36:13;;;;;;;9.18;5.47;;;14.20;99.90;;;;;;5136708;27;20043;-69
2022/08/07 04:38:39;;;;;;;7.90;5.13;;;14.30;99.90;;;;;;5137289;27;20050;-70
2022/08/07 04:41:05;;;;;;;9.30;5.50;;;14.30;99.90;;;;;;5137270;27;20066;-70
2022/08/07 04:43:37;;;;;;;8.10;5.25;;;14.30;99.90;;;;;;5136565;27;20335;-69
2022/08/07 04:46:13;;;;;;;7.45;5.05;;;14.40;99.90;;;;;;5137336;27;20035;-69
2022/08/07 04:48:47;;;;;;;7.85;4.95;;;14.40;99.90;;;;;;5137760;27;20049;-70
2022/08/07 04:51:31;;;;;;;10.68;4.43;;;14.30;99.90;;;;;;5120035;27;20420;-70
2022/08/07 04:54:08;;;;;;;7.05;4.30;;;14.30;99.90;;;;;;5137971;27;20039;-69
2022/08/07 04:56:43;;;;;;;7.38;4.68;;;14.30;99.90;;;;;;5136940;27;20313;-70
2022/08/07 04:59:23;;;;;;;9.65;4.65;;;14.40;99.90;;;;;;5137717;27;20442;-70
2022/08/07 05:02:07;;;;;;;7.65;4.75;;;14.50;99.90;;;;;;5137728;27;20089;-70
2022/08/07 05:04:45;;;;;;;7.07;4.32;;;14.40;99.90;;;;;;5137818;27;20035;-70
2022/08/07 05:07:45;;;;;;;6.50;4.53;;;14.40;99.90;;;;;;5135545;27;20075;-70
2022/08/07 05:10:27;;;;;;;7.15;4.60;;;14.60;99.90;;;;;;5136887;27;20049;-70
2022/08/07 05:12:59;;;;;;;9.07;4.07;;;14.60;99.90;;;;;;5136256;27;20372;-69
2022/08/07 05:15:41;;;;;;;8.27;4.47;;;14.60;99.90;;;;;;5136945;27;20031;-70
2022/08/07 05:18:27;;;;;;;9.57;4.95;;;14.60;99.90;;;;;;5136956;27;20039;-70
2022/08/07 05:20:56;;;;;;;6.88;4.70;;;14.70;99.90;;;;;;5137633;27;20053;-70
2022/08/07 05:23:36;;;;;;;6.70;3.83;;;14.80;99.90;;;;;;5119241;28;20315;-70
2022/08/07 05:26:04;;;;;;;7.70;4.80;;;14.80;99.90;;;;;;5137112;27;20107;-70
2022/08/07 05:28:32;;;;;;;6.85;4.75;;;15.00;99.90;;;;;;5137246;27;20047;-71
2022/08/07 05:31:00;;;;;;;5.78;4.45;;;15.20;99.90;;;;;;5137421;27;20047;-71
2022/08/07 05:33:27;;;;;;;6.15;4.32;;;15.30;99.90;;;;;;5137491;27;20039;-70
2022/08/07 05:35:55;;;;;;;6.63;4.50;;;15.40;99.90;;;;;;5137420;27;20068;-70
2022/08/07 05:38:21;;;;;;;6.57;4.30;;;15.50;99.90;;;;;;5136880;27;20050;-70
2022/08/07 05:40:48;;;;;;;8.52;5.00;;;15.60;99.90;;;;;;5137173;27;20386;-69
2022/08/07 05:43:15;;;;;;;7.68;5.38;;;15.70;99.90;;;;;;5137291;27;20058;-69
2022/08/07 05:45:42;;;;;;;8.88;5.25;;;15.80;99.90;;;;;;5136107;27;20039;-70
2022/08/07 05:48:08;;;;;;;8.13;5.68;;;15.80;99.90;;;;;;5140447;27;20038;-69
2022/08/07 05:50:34;;;;;;;7.43;5.18;;;16.10;99.90;;;;;;5141091;27;20039;-70
2022/08/07 05:53:03;;;;;;;8.57;5.10;;;16.30;99.90;;;;;;5140552;27;20438;-70
2022/08/07 05:55:31;;;;;;;9.82;5.40;;;16.40;99.90;;;;;;5141466;27;20043;-70
2022/08/07 05:57:58;;;;;;;9.75;5.93;;;16.60;99.90;;;;;;5141039;27;20423;-70
2022/08/07 06:00:24;;;;;;;9.43;6.10;;;16.60;99.90;;;;;;5140458;27;20046;-70
2022/08/07 06:02:51;;;;;;;10.10;6.55;;;16.80;99.90;;;;;;5141137;27;20054;-70
2022/08/07 06:05:19;;;;;;;9.15;5.60;;;17.00;99.90;;;;;;5139733;27;20043;-70
2022/08/07 06:07:46;;;;;;;8.70;5.50;;;17.10;99.90;;;;;;5139055;27;20035;-70
2022/08/07 06:10:12;;;;;;;7.70;5.20;;;17.20;99.90;;;;;;5140754;27;20336;-70
2022/08/07 06:12:38;;;;;;;9.50;5.18;;;17.20;99.90;;;;;;5140469;27;20504;-70
2022/08/07 06:15:05;;;;;;;9.10;6.05;;;17.40;99.90;;;;;;5141034;27;20043;-70
2022/08/07 06:17:31;;;;;;;7.55;5.38;;;17.40;99.90;;;;;;5141128;27;20043;-70
2022/08/07 06:19:58;;;;;;;8.18;5.95;;;17.50;99.90;;;;;;5140912;27;20091;-70
2022/08/07 06:22:25;;;;;;;9.95;5.53;;;17.50;99.90;;;;;;5140974;27;20054;-70
2022/08/07 06:24:51;;;;;;;8.43;5.35;;;17.70;99.90;;;;;;5139603;27;20086;-70
2022/08/07 06:27:21;;;;;;;7.30;4.93;;;17.80;99.90;;;;;;5139649;27;20090;-70
2022/08/07 06:29:47;;;;;;;8.82;4.95;;;17.90;99.90;;;;;;5141202;27;20047;-70
2022/08/07 06:32:12;;;;;;;10.18;5.18;;;18.00;99.90;;;;;;5140731;27;20148;-70
2022/08/07 06:34:38;;;;;;;7.72;4.78;;;18.20;99.90;;;;;;5139861;27;20324;-70
2022/08/07 06:37:04;;;;;;;6.88;5.07;;;18.20;99.90;;;;;;5139398;27;20340;-70
2022/08/07 06:39:31;;;;;;;8.32;4.88;;;18.10;99.90;;;;;;5139881;27;20039;-70
2022/08/07 06:42:07;;;;;;;8.05;4.95;;;18.20;99.90;;;;;;5140478;27;20084;-70
2022/08/07 06:44:34;;;;;;;6.00;4.30;;;18.40;99.90;;;;;;5140587;27;20089;-70
2022/08/07 06:47:01;;;;;;;6.40;4.30;;;18.60;99.90;;;;;;5139155;27;20412;-70
2022/08/07 06:49:27;;;;;;;7.82;4.72;;;18.80;99.90;;;;;;5140336;27;20084;-70
2022/08/07 06:51:54;;;;;;;6.57;4.30;;;18.70;99.90;;;;;;5140169;27;20327;-70
2022/08/07 06:54:21;;;;;;;7.95;4.50;;;18.70;99.90;;;;;;5139098;27;20316;-70
2022/08/07 06:56:49;;;;;;;8.77;4.05;;;18.90;99.90;;;;;;5140228;27;20035;-70
2022/08/07 06:59:21;;;;;;;6.30;3.97;;;19.00;99.90;;;;;;5138528;27;20442;-70
2022/08/07 07:01:48;;;;;;;5.85;4.18;;;18.90;99.90;;;;;;5139910;27;20046;-70
2022/08/07 07:04:14;;;;;;;7.18;4.07;;;19.00;99.90;;;;;;5139517;27;20047;-69
2022/08/07 07:06:40;;;;;;;7.57;4.13;;;19.20;99.90;;;;;;5137214;27;20038;-69
2022/08/07 07:09:19;;;;;;;7.63;5.22;;;19.20;99.90;;;;;;5137463;27;20356;-69
2022/08/07 07:12:00;;;;;;;7.38;3.83;;;19.30;99.90;;;;;;5138244;27;20412;-69
2022/08/07 07:14:31;;;;;;;8.10;3.42;;;19.30;99.90;;;;;;5139492;27;20454;-68
2022/08/07 07:17:01;;;;;;;5.30;3.78;;;19.60;99.90;;;;;;5139437;27;20039;-69
2022/08/07 07:19:36;;;;;;;4.40;2.63;;;19.70;99.90;;;;;;5122118;27;20043;-68
2022/08/07 07:22:02;;;;;;;6.18;3.08;;;19.80;99.90;;;;;;5118377;28;20488;-68
2022/08/07 07:24:28;;;;;;;6.03;3.10;;;20.00;99.90;;;;;;5132183;27;20049;-68
2022/08/07 07:26:59;;;;;;;4.47;2.45;;;20.00;99.90;;;;;;5139310;27;20051;-70
2022/08/07 07:29:29;;;;;;;4.70;2.67;;;19.90;99.50;;;;;;5134919;27;20441;-70
2022/08/07 07:31:56;;;;;;;4.75;2.95;;;19.90;99.60;;;;;;5123319;27;20424;-72
2022/08/07 07:34:27;;;;;;;7.05;3.08;;;19.80;99.20;;;;;;5138960;27;20065;-69
2022/08/07 07:36:53;;;;;;;4.28;2.38;;;20.00;99.80;;;;;;5117230;28;20040;-68
2022/08/07 07:39:21;;;;;;;3.00;2.25;;;19.90;99.20;;;;;;5099641;28;20036;-67
2022/08/07 07:41:49;;;;;;;4.90;2.40;;;20.10;99.20;;;;;;5118773;28;20128;-67
2022/08/07 07:44:17;;;;;;;5.90;2.55;;;20.10;99.10;;;;;;5118240;28;20510;-67
2022/08/07 07:46:44;;;;;;;3.95;2.63;;;20.10;99.10;;;;;;5117485;28;20047;-67
2022/08/07 07:49:13;;;;;;;5.25;2.67;;;20.20;99.20;;;;;;5117273;28;20044;-67
2022/08/07 07:51:41;;;;;;;5.60;3.25;;;20.20;99.20;;;;;;5118343;28;20039;-67
2022/08/07 07:54:07;;;;;;;6.88;3.03;;;20.50;99.30;;;;;;5118370;28;20444;-66
2022/08/07 07:56:34;;;;;;;7.07;3.55;;;20.60;99.40;;;;;;5117334;28;20039;-67
2022/08/07 07:59:02;;;;;;;7.70;3.42;;;20.70;99.20;;;;;;5117617;28;20039;-67
2022/08/07 08:01:33;;;;;;;6.55;3.22;;;20.70;99.10;;;;;;5118379;28;20433;-67
2022/08/07 08:04:03;;;;;;;4.32;2.95;;;20.80;98.80;;;;;;5118178;28;20438;-66
2022/08/07 08:06:30;;;;;;;6.22;3.53;;;20.80;98.70;;;;;;5117438;28;20108;-66
2022/08/07 08:08:59;;;;;;;6.45;3.40;;;20.80;98.90;;;;;;5117402;28;20108;-67
2022/08/07 08:11:25;;;;;;;4.75;2.95;;;20.80;99.20;;;;;;5099474;28;20071;-67
2022/08/07 08:13:51;;;;;;;4.72;3.03;;;20.80;98.90;;;;;;5117522;28;20446;-67
2022/08/07 08:16:19;;;;;;;7.25;3.05;;;20.70;98.80;;;;;;5117503;28;20122;-67
2022/08/07 08:18:47;;;;;;;5.65;3.28;;;20.70;98.70;;;;;;5116962;28;20317;-66
2022/08/07 08:27:03;;;;;;;4.70;3.08;;;21.00;98.70;;;;;;5062644;28;20052;-66
2022/08/07 08:29:36;;;;;;;4.65;2.95;;;20.90;98.40;;;;;;5117960;28;20067;-66
2022/08/07 08:32:04;;;;;;;4.68;3.03;;;20.80;98.40;;;;;;5118051;28;20122;-66
2022/08/07 08:34:31;;;;;;;5.55;3.33;;;20.50;98.50;;;;;;5117800;28;20100;-66
2022/08/07 08:36:58;;;;;;;6.18;2.97;;;20.50;98.70;;;;;;5116877;28;20328;-66
2022/08/07 08:39:26;;;;;;;4.82;3.00;;;20.40;98.10;;;;;;5117025;28;20082;-66
2022/08/07 08:42:21;;;;;;;4.72;3.00;;;20.40;98.50;;;;;;5117425;28;20063;-66
2022/08/07 08:44:59;;;;;;;4.05;2.92;;;20.60;98.60;;;;;;5111674;28;20059;-66
2022/08/07 08:47:57;;;;;;;4.53;2.67;;;20.80;98.10;;;;;;5116678;28;20096;-66
2022/08/07 08:50:33;;;;;;;3.25;2.38;;;20.40;98.40;;;;;;5117818;28;20031;-74
2022/08/07 08:53:30;;;;;;;8.52;2.80;;;20.50;98.60;;;;;;5117433;28;20034;-74
2022/08/07 08:56:01;;;;;;;8.90;2.78;;;20.10;98.40;;;;;;5116748;28;20040;-74
2022/08/07 08:58:49;;;;;;;4.88;2.40;;;20.00;98.60;;;;;;5117615;28;20122;-74
2022/08/07 09:01:47;;;;;;;8.35;2.58;;;20.10;98.30;;;;;;5117592;28;20079;-68
2022/08/07 09:04:25;;;;;;;3.85;2.30;;;20.30;98.20;;;;;;5115310;28;20044;-69
2022/08/07 09:07:02;;;;;;;3.55;2.30;;;20.60;98.20;;;;;;5116832;28;20040;-66
2022/08/07 09:09:27;;;;;;;3.15;2.40;;;20.80;98.00;;;;;;5115751;28;20432;-66
2022/08/07 09:12:06;;;;;;;3.15;2.28;;;21.00;98.00;;;;;;5116996;28;20039;-67
2022/08/07 09:15:00;;;;;;;5.57;2.30;;;21.10;98.10;;;;;;5117466;28;20143;-67
2022/08/07 09:18:04;;;;;;;2.95;2.58;;;21.10;97.90;;;;;;5085417;28;20185;-66
2022/08/07 09:20:53;;;;;;;3.30;2.63;;;21.50;97.80;;;;;;5115743;28;20096;-66
2022/08/07 09:23:39;;;;;;;2.70;2.10;;;21.50;97.50;;;;;;5117094;28;20039;-67
2022/08/07 09:26:43;;;;;;;7.53;3.13;;;21.20;97.20;;;;;;5119848;27;20105;-66
2022/08/07 09:29:21;;;;;;;4.72;2.35;;;20.90;97.40;;;;;;5136375;28;20123;-66
2022/08/07 09:32:05;;;;;;;3.42;2.20;;;21.00;97.70;;;;;;5136282;28;20442;-67
2022/08/07 09:34:42;;;;;;;6.97;2.17;;;21.20;96.90;;;;;;5137465;27;20039;-66
2022/08/07 09:37:27;;;;;;;4.57;2.25;;;21.60;97.10;;;;;;5137257;28;20043;-66
2022/08/07 09:40:37;;;;;;;3.60;1.92;;;21.90;97.20;;;;;;5136134;28;20122;-67
2022/08/07 09:43:11;;;;;;;3.75;1.80;;;22.30;96.70;;;;;;5073733;28;20048;-70
2022/08/07 09:45:51;;;;;;;3.65;1.88;;;22.40;96.00;;;;;;5107181;28;20052;-67
2022/08/07 09:48:35;;;;;;;4.57;1.98;;;22.70;95.50;;;;;;5115805;28;20032;-67
2022/08/07 09:51:15;;;;;;;5.63;2.35;;;22.80;96.30;;;;;;5116491;28;20036;-67
2022/08/07 09:53:44;;;;;;;5.47;2.60;;;22.80;96.90;;;;;;5128460;28;20039;-66
2022/08/07 09:56:53;;;;;;;4.82;2.35;;;22.90;96.80;;;;;;5136304;27;20055;-66
2022/08/07 09:59:40;;;;;;;2.85;2.20;;;22.70;96.80;;;;;;5156613;27;20047;-67
2022/08/07 10:02:24;;;;;;;4.20;2.30;;;22.90;97.00;;;;;;5117265;28;20069;-67
2022/08/07 10:05:09;;;;;;;4.38;2.75;;;23.00;96.50;;;;;;5137405;28;20075;-67
2022/08/07 10:07:53;;;;;;;4.78;2.53;;;22.90;96.60;;;;;;5117130;28;20066;-70
2022/08/07 10:10:24;;;;;;;2.95;1.95;;;23.00;96.60;;;;;;5122247;27;20040;-66
2022/08/07 10:13:28;;;;;;;5.22;2.05;;;23.00;96.50;;;;;;5137028;28;20043;-68
2022/08/07 10:16:07;;;;;;;3.08;1.80;;;23.10;96.10;;;;;;5128760;28;20400;-67
2022/08/07 10:18:35;;;;;;;5.05;2.45;;;23.10;96.00;;;;;;5122966;28;20039;-68
2022/08/07 10:21:25;;;;;;;3.45;2.00;;;23.30;96.20;;;;;;5131059;28;20039;-67
2022/08/07 10:24:15;;;;;;;6.25;2.60;;;23.70;96.50;;;;;;5115122;28;20327;-67
2022/08/07 10:26:40;;;;;;;3.08;1.90;;;24.00;96.70;;;;;;5128662;28;20325;-67
2022/08/07 10:29:37;;;;;;;5.85;1.85;;;23.80;95.60;;;;;;5136709;27;20050;-67
2022/08/07 10:32:27;;;;;;;3.17;1.92;;;23.50;95.50;;;;;;5130784;28;20036;-67
2022/08/07 10:35:33;;;;;;;3.80;1.98;;;23.40;96.00;;;;;;5130963;27;20446;-66
2022/08/07 10:38:23;;;;;;;4.37;2.00;;;23.60;95.80;;;;;;5106354;27;20432;-66
2022/08/07 10:41:17;;;;;;;3.83;2.38;;;23.70;95.90;;;;;;5140519;27;20043;-66
2022/08/07 10:44:08;;;;;;;4.18;1.77;;;23.60;96.70;;;;;;5139363;27;20035;-67
2022/08/07 10:47:14;;;;;;;3.17;2.15;;;23.90;95.90;;;;;;5140472;27;20402;-66
2022/08/07 10:49:49;;;;;;;3.30;2.13;;;23.70;95.40;;;;;;5139774;27;20049;-68
2022/08/07 10:52:27;;;;;;;4.95;1.90;;;23.60;95.60;;;;;;5138136;27;20042;-67
2022/08/07 10:55:05;;;;;;;3.17;2.00;;;23.70;95.40;;;;;;5139387;27;20035;-67
2022/08/07 10:57:46;;;;;;;3.67;2.10;;;23.70;96.00;;;;;;5139302;27;20118;-66
2022/08/07 11:00:17;;;;;;;2.97;1.75;;;24.50;95.90;;;;;;5139212;27;20049;-67
2022/08/07 11:02:49;;;;;;;2.40;1.73;;;24.90;95.90;;;;;;5139457;27;20420;-66
2022/08/07 11:05:40;;;;;;;4.85;1.77;;;25.00;95.30;;;;;;5138847;27;20050;-67
2022/08/07 11:08:17;;;;;;;4.25;1.95;;;25.40;95.60;;;;;;5138857;27;20364;-66
2022/08/07 11:11:00;;;;;;;4.05;1.98;;;25.00;95.00;;;;;;5139221;27;20046;-67
2022/08/07 11:13:35;;;;;;;2.72;1.70;;;24.80;95.50;;;;;;5140079;27;20034;-66
2022/08/07 11:16:10;;;;;;;4.88;1.85;;;24.90;95.40;;;;;;5140208;27;20042;-66
2022/08/07 11:18:45;;;;;;;2.30;1.70;;;25.30;94.90;;;;;;5139803;27;20445;-66
2022/08/07 11:21:48;;;;;;;3.13;1.77;;;25.30;94.90;;;;;;5138621;27;20035;-67
2022/08/07 11:24:24;;;;;;;1.88;1.45;;;25.90;95.10;;;;;;5153022;27;20090;-67
2022/08/07 11:27:02;;;;;;;;;;;26.10;94.70;;;;;;5137730;27;20055;-67
2022/08/07 11:29:38;;;;;;;3.08;1.77;;;26.30;95.00;;;;;;5138046;27;19915;-67
2022/08/07 11:32:13;;;;;;;6.05;1.70;;;26.20;94.80;;;;;;5138136;27;20092;-67
2022/08/07 11:34:52;;;;;;;3.00;1.83;;;26.70;95.00;;;;;;5121340;27;20040;-67
2022/08/07 11:38:13;;;;;;;3.65;2.03;;;27.00;94.90;;;;;;5138633;27;20046;-67
2022/08/07 11:40:58;;;;;;;2.83;1.75;;;26.80;95.10;;;;;;5075430;28;20051;-67
2022/08/07 11:43:29;;;;;;;2.45;1.77;;;26.30;94.60;;;;;;5074875;28;20381;-67
2022/08/07 11:46:04;;;;;;;2.53;1.60;;;26.30;94.90;;;;;;5151466;27;20047;-67
2022/08/07 11:48:51;;;;;;;3.72;1.70;;;26.30;94.90;;;;;;5137934;27;20043;-67
2022/08/07 11:51:45;;;;;;;2.92;1.55;;;26.40;94.80;;;;;;5137468;27;20443;-67
2022/08/07 11:54:30;;;;;;;2.75;1.30;;;26.50;94.50;;;;;;5132263;27;20069;-67
2022/08/07 11:57:05;;;;;;;2.03;1.25;;;26.70;94.30;;;;;;5138869;27;20061;-67
2022/08/07 12:00:04;;;;;;;1.88;1.13;;;27.00;93.90;;;;;;5158223;27;20074;-67
2022/08/07 12:02:30;;;;;;;2.05;1.40;;;26.10;93.90;;;;;;5159656;27;20458;-67
2022/08/07 12:05:01;;;;;;;4.45;0.90;;;25.90;93.60;;;;;;5158564;27;20038;-69
2022/08/07 12:07:33;;;;;;;1.13;0.90;;;26.30;93.70;;;;;;5159940;27;20042;-67
2022/08/07 12:10:04;;;;;;;1.60;1.45;;;26.80;93.50;;;;;;5159372;27;20043;-67
2022/08/07 12:12:59;;;;;;;2.35;1.58;;;27.10;94.10;;;;;;5158497;27;20415;-66
2022/08/07 12:15:42;;;;;;;2.63;1.40;;;27.00;94.30;;;;;;5158407;27;20122;-67
2022/08/07 12:18:30;;;;;;;2.45;1.42;;;27.30;94.30;;;;;;5158783;27;20065;-67
2022/08/07 12:21:33;;;;;;;1.73;1.23;;;27.80;94.40;;;;;;5158340;27;20038;-67
2022/08/07 12:24:26;;;;;;;2.40;1.27;;;27.70;94.20;;;;;;5159134;27;20043;-75
2022/08/07 12:27:15;;;;;;;3.05;1.42;;;28.10;94.50;;;;;;5158981;27;20046;-66
2022/08/07 12:30:03;;;;;;;2.70;1.50;;;28.00;94.30;;;;;;5159450;27;20113;-67
2022/08/07 12:32:42;;;;;;;1.58;1.27;;;27.90;94.20;;;;;;5158095;27;20425;-67
2022/08/07 12:35:11;;;;;;;2.00;1.38;;;27.90;94.40;;;;;;5158860;27;20316;-67
2022/08/07 12:37:39;;;;;;;3.15;1.45;;;28.00;94.20;;;;;;5159249;27;20069;-67
2022/08/07 12:40:07;;;;;;;2.17;1.50;;;27.70;94.20;;;;;;5158459;27;20111;-67
2022/08/07 12:42:33;;;;;;;2.22;1.33;;;27.50;94.20;;;;;;5157775;27;20074;-67
2022/08/07 12:45:10;;;;;;;2.08;1.55;;;27.70;94.50;;;;;;5140688;27;20046;-66
2022/08/07 12:48:15;;;;;;;2.40;1.35;;;28.10;94.30;;;;;;5158770;27;20041;-68
2022/08/07 12:50:58;;;;;;;7.38;1.90;;;28.40;94.40;;;;;;5157982;27;20049;-74
2022/08/07 12:53:47;;;;;;;3.97;1.83;;;27.80;94.40;;;;;;5157670;27;20039;-73
2022/08/07 12:56:21;;;;;;;4.57;1.75;;;27.10;94.60;;;;;;5157484;27;20428;-73
2022/08/07 12:58:49;;;;;;;4.05;1.60;;;26.80;94.60;;;;;;5158592;27;20039;-66
2022/08/07 13:01:21;;;;;;;2.08;1.55;;;26.60;94.20;;;;;;5157771;27;20042;-67
2022/08/07 13:04:14;;;;;;;2.90;1.48;;;26.80;94.20;;;;;;5158696;27;20030;-67
2022/08/07 13:06:42;;;;;;;1.65;1.52;;;26.60;93.70;;;;;;5158524;27;20038;-67
2022/08/07 13:09:41;;;;;;;2.60;1.27;;;26.90;93.70;;;;;;5157001;27;20066;-67
2022/08/07 13:12:13;;;;;;;2.80;1.50;;;26.50;94.20;;;;;;5158571;27;20368;-67
2022/08/07 13:15:32;;;;;;;7.30;2.38;;;26.50;94.80;;;;;;5158688;27;20092;-76
2022/08/07 13:18:10;;;;;;;3.88;1.80;;;26.20;94.80;;;;;;5115013;28;20035;-67
2022/08/07 13:20:45;;;;;;;4.05;2.00;;;25.20;95.10;;;;;;5098208;28;20035;-67
2022/08/07 13:23:19;;;;;;;3.30;1.77;;;25.20;95.30;;;;;;5141393;27;20088;-69
2022/08/07 13:26:06;;;;;;;4.57;1.80;;;25.60;95.40;;;;;;5158184;27;20051;-69